Time;durP1;ratioP1;P1;durP2;ratioP2;P2;SDS_P1;SDS_P2;PMS_P1;PMS_P2;Temp;Humidity;BMP_temperature;BMP_pressure;BME280_temperature;BME280_humidity;BME280_pressure;Samples;Min_cycle;Max_cycle;Signal;HPM_P1;HPM_P2
2021/11/16 00:00:37;;;;;;;223.15;113.88;;;;;;;2.63;100.00;101684.31;5012456;28;20037;-71
2021/11/16 00:03:03;;;;;;;228.82;110.68;;;;;;;2.66;100.00;101683.34;5011286;28;20406;-70
2021/11/16 00:05:28;;;;;;;242.70;117.70;;;;;;;2.65;100.00;101690.44;5012857;28;20030;-70
2021/11/16 00:07:56;;;;;;;221.68;113.68;;;;;;;2.63;100.00;101681.69;5012057;28;20701;-70
2021/11/16 00:10:22;;;;;;;214.48;111.35;;;;;;;2.64;100.00;101674.59;5012456;28;20355;-70
2021/11/16 00:12:47;;;;;;;200.27;108.88;;;;;;;2.64;100.00;101685.19;5012117;28;20045;-71
2021/11/16 00:15:13;;;;;;;195.38;103.65;;;;;;;2.67;100.00;101671.84;5012141;28;20067;-70
2021/11/16 00:17:38;;;;;;;205.38;101.03;;;;;;;2.73;100.00;101685.75;5012356;28;20018;-70
2021/11/16 00:20:09;;;;;;;190.15;97.35;;;;;;;2.74;100.00;101681.31;5012055;28;20026;-71
2021/11/16 00:22:34;;;;;;;182.40;100.80;;;;;;;2.71;100.00;101668.19;5012255;28;20057;-71
2021/11/16 00:27:35;;;;;;;180.25;99.10;;;;;;;2.85;100.00;101679.16;5011832;28;20034;-71
2021/11/16 00:30:04;;;;;;;160.40;92.68;;;;;;;2.93;100.00;101682.41;5011886;28;20084;-70
2021/11/16 00:32:29;;;;;;;159.10;93.95;;;;;;;2.99;100.00;101667.16;5010748;28;20502;-70
2021/11/16 00:34:55;;;;;;;144.02;88.15;;;;;;;3.07;100.00;101674.84;5011671;28;20136;-70
2021/11/16 00:37:25;;;;;;;137.00;84.47;;;;;;;3.06;100.00;101662.53;4994320;28;20018;-71
2021/11/16 00:39:56;;;;;;;136.93;81.97;;;;;;;3.18;100.00;101678.84;5011925;28;20044;-70
2021/11/16 00:42:23;;;;;;;134.02;79.88;;;;;;;3.24;100.00;101677.75;5011521;28;20061;-71
2021/11/16 00:44:48;;;;;;;137.55;82.20;;;;;;;3.29;100.00;101675.81;5011505;28;20044;-69
2021/11/16 00:47:14;;;;;;;136.45;81.68;;;;;;;3.30;100.00;101666.91;4993894;28;20470;-70
2021/11/16 00:49:39;;;;;;;130.32;79.40;;;;;;;3.35;100.00;101671.13;4993646;28;20033;-70
2021/11/16 00:52:05;;;;;;;136.23;83.07;;;;;;;3.40;100.00;101666.53;5011365;28;20765;-70
2021/11/16 00:54:31;;;;;;;137.88;82.63;;;;;;;3.47;100.00;101670.69;5009943;28;20117;-70
2021/11/16 00:56:57;;;;;;;133.52;81.60;;;;;;;3.47;100.00;101653.91;5011102;28;20025;-70
2021/11/16 00:59:22;;;;;;;114.95;70.78;;;;;;;3.55;100.00;101667.75;5011327;28;20053;-71
2021/11/16 01:01:48;;;;;;;126.22;72.35;;;;;;;3.55;100.00;101657.13;4993416;28;20133;-70
2021/11/16 01:04:17;;;;;;;110.25;67.60;;;;;;;3.68;100.00;101675.16;5011118;28;20055;-70
2021/11/16 01:06:44;;;;;;;115.18;68.57;;;;;;;3.72;100.00;101660.88;5010880;28;20040;-69
2021/11/16 01:09:10;;;;;;;112.80;67.95;;;;;;;3.80;100.00;101666.75;5010766;28;20029;-70
2021/11/16 01:11:36;;;;;;;112.97;66.85;;;;;;;3.82;100.00;101667.56;5010440;28;20429;-70
2021/11/16 01:14:02;;;;;;;115.40;68.75;;;;;;;3.83;100.00;101665.75;5011170;28;20033;-69
2021/11/16 01:16:27;;;;;;;119.38;70.85;;;;;;;3.84;100.00;101651.59;5011145;28;20045;-70
2021/11/16 01:18:53;;;;;;;117.00;70.18;;;;;;;3.91;100.00;101651.28;5010911;28;20566;-70
2021/11/16 01:21:19;;;;;;;112.03;69.57;;;;;;;3.92;100.00;101649.47;5010959;28;20056;-70
2021/11/16 01:23:46;;;;;;;116.32;69.55;;;;;;;3.97;100.00;101656.31;4991963;28;20042;-70
2021/11/16 01:26:12;;;;;;;124.50;72.85;;;;;;;4.05;100.00;101653.38;5010724;28;20080;-70
2021/11/16 01:28:39;;;;;;;123.63;72.78;;;;;;;4.07;100.00;101655.03;5010808;28;20718;-69
2021/11/16 01:31:05;;;;;;;121.05;72.47;;;;;;;4.09;100.00;101652.31;5010827;28;20021;-70
2021/11/16 01:33:42;;;;;;;118.60;72.18;;;;;;;4.10;100.00;101656.72;5010827;28;20042;-71
2021/11/16 01:36:10;;;;;;;114.32;70.93;;;;;;;4.04;100.00;101641.03;5010649;28;20034;-69
2021/11/16 01:38:36;;;;;;;119.43;72.35;;;;;;;4.16;100.00;101656.47;5010600;28;20058;-69
2021/11/16 01:41:02;;;;;;;121.97;73.07;;;;;;;4.16;100.00;101645.88;5010791;28;20029;-70
2021/11/16 01:43:28;;;;;;;117.80;73.03;;;;;;;4.13;100.00;101632.72;5010566;28;20038;-69
2021/11/16 01:45:53;;;;;;;115.43;70.55;;;;;;;4.21;100.00;101641.22;5010496;28;20579;-71
2021/11/16 01:48:19;;;;;;;117.65;69.85;;;;;;;4.23;100.00;101642.88;5010471;28;20121;-70
2021/11/16 01:50:45;;;;;;;122.43;74.03;;;;;;;4.14;100.00;101634.44;5010556;28;20029;-70
2021/11/16 01:53:12;;;;;;;115.60;71.43;;;;;;;4.26;100.00;101645.41;5010249;28;20044;-69
2021/11/16 01:55:39;;;;;;;114.35;71.75;;;;;;;4.24;100.00;101644.63;5010527;28;20172;-70
2021/11/16 01:58:05;;;;;;;118.28;71.80;;;;;;;4.26;100.00;101641.91;5009043;28;20061;-70
2021/11/16 02:00:37;;;;;;;109.82;67.57;;;;;;;4.29;100.00;101644.44;5010572;28;20036;-70
2021/11/16 02:03:03;;;;;;;116.18;68.85;;;;;;;4.33;100.00;101646.03;5010439;28;20060;-71
2021/11/16 02:05:53;;;;;;;118.22;67.97;;;;;;;4.31;100.00;101639.91;5010220;28;20034;-70
2021/11/16 02:08:20;;;;;;;111.20;66.70;;;;;;;4.27;100.00;101633.00;5010260;28;20382;-70
2021/11/16 02:10:48;;;;;;;107.43;66.97;;;;;;;4.27;100.00;101617.94;5010377;28;20029;-71
2021/11/16 02:13:17;;;;;;;110.97;66.80;;;;;;;4.34;100.00;101629.16;5010295;28;20029;-70
2021/11/16 02:15:43;;;;;;;111.03;67.00;;;;;;;4.31;100.00;101630.16;5010112;28;20045;-70
2021/11/16 02:18:11;;;;;;;106.50;65.97;;;;;;;4.28;100.00;101627.63;5010161;28;20026;-70
2021/11/16 02:20:39;;;;;;;114.25;66.22;;;;;;;4.21;100.00;101623.50;5010255;28;20022;-70
2021/11/16 02:23:05;;;;;;;118.70;69.10;;;;;;;4.27;100.00;101623.25;4992498;28;20034;-70
2021/11/16 02:25:32;;;;;;;118.35;70.63;;;;;;;4.26;100.00;101629.47;5012722;28;20018;-70
2021/11/16 02:27:57;;;;;;;119.15;71.45;;;;;;;4.26;100.00;101615.34;5012525;28;20548;-70
2021/11/16 02:30:24;;;;;;;117.97;70.97;;;;;;;4.31;100.00;101627.50;5012886;28;20030;-70
2021/11/16 02:32:51;;;;;;;115.93;70.28;;;;;;;4.36;100.00;101628.16;4996551;28;20030;-71
2021/11/16 02:35:18;;;;;;;118.43;69.68;;;;;;;4.39;100.00;101620.06;5012497;28;20487;-71
2021/11/16 02:37:44;;;;;;;120.38;70.05;;;;;;;4.35;100.00;101612.28;5013995;28;20654;-71
2021/11/16 02:40:11;;;;;;;115.30;69.80;;;;;;;4.37;100.00;101607.78;5012873;28;20032;-70
2021/11/16 02:42:37;;;;;;;128.90;73.07;;;;;;;4.42;100.00;101616.44;5013923;28;20025;-70
2021/11/16 02:45:05;;;;;;;130.68;73.15;;;;;;;4.42;100.00;101613.78;5013870;28;20034;-71
2021/11/16 02:47:31;;;;;;;124.47;72.40;;;;;;;4.41;100.00;101612.91;5012228;28;20061;-70
2021/11/16 02:49:57;;;;;;;122.60;70.95;;;;;;;4.40;100.00;101605.88;5013879;28;20529;-70
2021/11/16 02:52:24;;;;;;;128.93;73.57;;;;;;;4.43;100.00;101629.66;5014079;28;20026;-70
2021/11/16 02:54:54;;;;;;;127.28;72.00;;;;;;;4.35;100.00;101606.97;5013608;28;20045;-69
2021/11/16 02:57:20;;;;;;;124.60;70.43;;;;;;;4.50;100.00;101646.19;5011180;28;20532;-70
2021/11/16 02:59:46;;;;;;;118.85;67.55;;;;;;;4.52;100.00;101625.75;5013514;28;20485;-71
2021/11/16 03:02:12;;;;;;;125.78;70.05;;;;;;;4.53;100.00;101624.81;5013610;28;20034;-69
2021/11/16 03:04:44;;;;;;;123.75;71.22;;;;;;;4.58;100.00;101638.78;5013630;28;20490;-70
2021/11/16 03:07:11;;;;;;;131.05;72.68;;;;;;;4.62;100.00;101632.41;5013524;28;20022;-71
2021/11/16 03:09:37;;;;;;;126.43;69.38;;;;;;;4.67;100.00;101646.34;5013443;28;20518;-71
2021/11/16 03:12:03;;;;;;;117.63;67.43;;;;;;;4.70;100.00;101655.06;5012038;28;20018;-69
2021/11/16 03:14:30;;;;;;;121.75;70.25;;;;;;;4.71;100.00;101645.31;5013249;28;20657;-70
2021/11/16 03:16:55;;;;;;;124.05;71.55;;;;;;;4.76;100.00;101637.97;5013396;28;20540;-70
2021/11/16 03:19:22;;;;;;;130.38;73.90;;;;;;;4.80;100.00;101644.88;5013320;28;20033;-70
2021/11/16 03:21:56;;;;;;;126.80;73.05;;;;;;;4.82;100.00;101645.69;5011999;28;20041;-71
2021/11/16 03:24:24;;;;;;;135.52;73.28;;;;;;;4.85;100.00;101653.53;5013354;28;20462;-69
2021/11/16 03:26:49;;;;;;;129.43;70.88;;;;;;;4.87;100.00;101642.84;5012828;28;20033;-71
2021/11/16 03:29:18;;;;;;;135.63;75.25;;;;;;;4.84;100.00;101651.81;5013335;28;20657;-71
2021/11/16 03:31:52;;;;;;;130.68;72.47;;;;;;;4.93;100.00;101661.19;5013395;28;20629;-71
2021/11/16 03:34:18;;;;;;;129.52;72.13;;;;;;;4.92;100.00;101644.38;5012494;28;20050;-71
2021/11/16 03:36:45;;;;;;;124.18;70.38;;;;;;;4.93;100.00;101647.91;4995530;28;20034;-71
2021/11/16 03:39:12;;;;;;;136.38;74.57;;;;;;;4.97;100.00;101657.47;5012790;28;20061;-70
2021/11/16 03:41:39;;;;;;;136.77;72.55;;;;;;;4.96;100.00;101648.59;5013136;28;20724;-70
2021/11/16 03:44:05;;;;;;;134.20;71.43;;;;;;;4.98;100.00;101654.72;5012980;28;20045;-70
2021/11/16 03:46:30;;;;;;;132.02;72.47;;;;;;;4.99;100.00;101652.94;5012633;28;20040;-71
2021/11/16 03:48:56;;;;;;;132.82;70.72;;;;;;;5.00;100.00;101650.19;5012910;28;20030;-70
2021/11/16 03:51:23;;;;;;;137.57;71.85;;;;;;;5.00;100.00;101644.03;5012778;28;20038;-70
2021/11/16 03:53:50;;;;;;;133.52;73.05;;;;;;;4.94;100.00;101637.19;5012368;28;20029;-69
2021/11/16 03:56:17;;;;;;;132.18;74.22;;;;;;;4.97;100.00;101645.03;5012019;28;20398;-70
2021/11/16 03:58:44;;;;;;;135.70;75.07;;;;;;;4.95;100.00;101635.38;4994433;28;20049;-71
2021/11/16 04:01:10;;;;;;;135.23;73.95;;;;;;;5.04;100.00;101648.28;5011960;28;20080;-69
2021/11/16 04:03:38;;;;;;;135.23;72.72;;;;;;;5.06;100.00;101652.59;5011966;28;20025;-70
2021/11/16 04:06:05;;;;;;;130.60;69.68;;;;;;;5.05;100.00;101650.88;5011679;28;20026;-70
2021/11/16 04:08:31;;;;;;;131.85;73.00;;;;;;;5.06;100.00;101638.44;5011583;28;20072;-70
2021/11/16 04:10:57;;;;;;;125.65;72.53;;;;;;;5.12;100.00;101641.69;5011681;28;20490;-70
2021/11/16 04:13:23;;;;;;;124.75;69.22;;;;;;;5.03;100.00;101630.59;5011577;28;20032;-71
2021/11/16 04:15:50;;;;;;;129.35;70.00;;;;;;;5.13;100.00;101642.56;5011508;28;20038;-71
2021/11/16 04:18:18;;;;;;;125.88;69.30;;;;;;;5.16;100.00;101632.63;5011712;28;20490;-71
2021/11/16 04:20:47;;;;;;;120.75;66.38;;;;;;;5.12;100.00;101630.22;5011421;28;20025;-70
2021/11/16 04:23:15;;;;;;;128.13;66.82;;;;;;;5.11;100.00;101626.66;5011254;28;20033;-70
2021/11/16 04:25:42;;;;;;;121.78;68.10;;;;;;;5.17;100.00;101630.84;5011658;28;20028;-70
2021/11/16 04:28:09;;;;;;;127.85;68.00;;;;;;;5.20;100.00;101636.91;5011130;28;20105;-71
2021/11/16 04:30:35;;;;;;;125.47;68.90;;;;;;;5.16;100.00;101627.31;5011128;28;20065;-71
2021/11/16 04:33:01;;;;;;;123.85;71.05;;;;;;;5.19;100.00;101631.66;5010801;28;20057;-68
2021/11/16 04:35:28;;;;;;;125.90;70.03;;;;;;;5.09;100.00;101619.72;5011336;28;20033;-69
2021/11/16 04:37:56;;;;;;;122.72;68.90;;;;;;;5.20;100.00;101634.25;5010837;28;20128;-70
2021/11/16 04:40:33;;;;;;;127.97;67.13;;;;;;;5.20;100.00;101634.25;5011139;28;20028;-71
2021/11/16 04:43:04;;;;;;;125.13;67.80;;;;;;;5.17;100.00;101625.53;5011486;28;20370;-71
2021/11/16 04:45:30;;;;;;;118.70;67.78;;;;;;;5.14;100.00;101630.97;5011743;28;20026;-70
2021/11/16 04:48:05;;;;;;;121.97;68.07;;;;;;;5.08;100.00;101634.78;5010511;28;20030;-70
2021/11/16 04:51:08;;;;;;;125.18;67.63;;;;;;;5.09;100.00;101631.19;5011556;28;20466;-70
2021/11/16 05:03:45;;;;;;;111.05;65.28;;;;;;;5.01;100.00;101638.66;5011740;28;20076;-71
2021/11/16 05:06:11;;;;;;;108.13;63.88;;;;;;;4.98;100.00;101629.94;5011256;28;20482;-71
2021/11/16 05:08:43;;;;;;;109.25;63.65;;;;;;;4.95;100.00;101640.69;5011490;28;20033;-71
2021/11/16 05:11:09;;;;;;;96.43;58.05;;;;;;;4.94;100.00;101631.00;5011179;28;20565;-71
2021/11/16 05:13:37;;;;;;;93.10;57.63;;;;;;;4.88;100.00;101626.81;5011365;28;20434;-71
2021/11/16 05:16:05;;;;;;;91.72;57.53;;;;;;;4.90;100.00;101640.88;5011032;28;20025;-70
2021/11/16 05:18:30;;;;;;;90.25;57.33;;;;;;;4.87;100.00;101629.56;5010080;28;20128;-71
2021/11/16 05:20:56;;;;;;;94.70;58.05;;;;;;;4.82;100.00;101632.41;5011094;28;20116;-70
2021/11/16 05:23:21;;;;;;;89.65;58.28;;;;;;;4.83;100.00;101628.81;4993146;28;20029;-71
2021/11/16 05:25:51;;;;;;;92.18;57.55;;;;;;;4.81;100.00;101627.16;4993314;28;20060;-71
2021/11/16 05:28:17;;;;;;;95.63;58.30;;;;;;;4.75;100.00;101629.13;5010778;28;20407;-70
2021/11/16 05:30:43;;;;;;;87.72;56.83;;;;;;;4.73;100.00;101635.44;5011164;28;20112;-71
2021/11/16 05:33:08;;;;;;;86.72;57.35;;;;;;;4.62;100.00;101619.13;5010504;28;20557;-70
2021/11/16 05:35:34;;;;;;;89.75;58.35;;;;;;;4.71;100.00;101640.84;5010654;28;20030;-70
2021/11/16 05:37:59;;;;;;;97.60;59.63;;;;;;;4.70;100.00;101646.22;5010633;28;20029;-70
2021/11/16 05:40:26;;;;;;;96.25;60.13;;;;;;;4.63;100.00;101642.09;5009126;28;20025;-69
2021/11/16 05:42:51;;;;;;;94.75;61.33;;;;;;;4.65;100.00;101640.25;5010373;28;20026;-69
2021/11/16 05:45:17;;;;;;;92.45;57.17;;;;;;;4.63;100.00;101636.78;4992929;28;20060;-71
2021/11/16 05:47:42;;;;;;;93.25;57.88;;;;;;;4.64;100.00;101649.13;5009273;28;20058;-70
2021/11/16 05:50:10;;;;;;;91.65;57.15;;;;;;;4.52;100.00;101633.72;5009259;28;20026;-70
2021/11/16 05:52:37;;;;;;;87.72;54.97;;;;;;;4.57;100.00;101648.53;5009112;28;20037;-70
2021/11/16 05:55:07;;;;;;;86.07;55.85;;;;;;;4.55;100.00;101654.84;5009129;28;20040;-69
2021/11/16 05:57:34;;;;;;;85.47;55.38;;;;;;;4.54;100.00;101658.41;5008987;28;20029;-69
2021/11/16 05:59:59;;;;;;;89.65;57.00;;;;;;;4.49;100.00;101655.94;5009802;28;20017;-70
2021/11/16 06:02:24;;;;;;;88.85;55.90;;;;;;;4.47;100.00;101652.50;5009748;28;20489;-70
2021/11/16 06:04:50;;;;;;;98.50;56.58;;;;;;;4.45;100.00;101664.97;5009610;28;20025;-70
2021/11/16 06:07:15;;;;;;;88.75;56.45;;;;;;;4.39;100.00;101648.44;5009535;28;20076;-71
2021/11/16 06:09:42;;;;;;;88.32;55.60;;;;;;;4.41;100.00;101662.50;5009457;28;20557;-71
2021/11/16 06:12:09;;;;;;;93.00;58.35;;;;;;;4.33;100.00;101668.13;5009413;28;20030;-71
2021/11/16 06:14:35;;;;;;;97.80;59.10;;;;;;;4.31;100.00;101671.78;5009650;28;20040;-71
2021/11/16 06:17:00;;;;;;;97.80;58.55;;;;;;;4.27;100.00;101671.06;5006844;28;20026;-71
2021/11/16 06:19:29;;;;;;;103.88;62.08;;;;;;;4.28;100.00;101667.47;5009441;28;20064;-71
2021/11/16 06:21:54;;;;;;;100.57;60.47;;;;;;;4.24;100.00;101663.22;5009100;28;20056;-71
2021/11/16 06:24:20;;;;;;;106.45;58.72;;;;;;;4.26;100.00;101664.00;5009465;28;20034;-70
2021/11/16 06:26:46;;;;;;;106.70;64.18;;;;;;;4.28;100.00;101667.47;5009468;28;20037;-70
2021/11/16 06:29:11;;;;;;;92.13;59.20;;;;;;;4.20;100.00;101658.09;5009022;28;20030;-70
2021/11/16 06:31:37;;;;;;;97.03;59.22;;;;;;;4.25;100.00;101666.72;5009471;28;20045;-70
2021/11/16 06:34:05;;;;;;;120.00;63.90;;;;;;;4.28;100.00;101672.78;5009068;28;20124;-71
2021/11/16 06:36:35;;;;;;;99.47;61.33;;;;;;;4.29;100.00;101681.63;4989099;28;20029;-71
2021/11/16 06:39:04;;;;;;;100.85;61.42;;;;;;;4.30;100.00;101664.75;5009100;28;20026;-70
2021/11/16 06:41:30;;;;;;;114.28;63.15;;;;;;;4.32;100.00;101677.03;5007876;28;20070;-70
2021/11/16 06:43:56;;;;;;;115.50;66.38;;;;;;;4.26;100.00;101658.69;5009001;28;20034;-70
2021/11/16 06:46:21;;;;;;;111.78;63.65;;;;;;;4.28;100.00;101656.84;5009060;28;20038;-70
2021/11/16 06:48:47;;;;;;;102.25;61.97;;;;;;;4.38;100.00;101670.59;5009232;28;20030;-71
2021/11/16 06:51:13;;;;;;;109.97;63.97;;;;;;;4.34;100.00;101656.59;5008994;28;20045;-71
2021/11/16 06:53:38;;;;;;;103.07;62.40;;;;;;;4.41;100.00;101665.16;4991354;28;20075;-70
2021/11/16 06:56:05;;;;;;;111.65;67.57;;;;;;;4.44;100.00;101665.03;5008954;28;20453;-70
2021/11/16 06:58:34;;;;;;;128.20;73.47;;;;;;;4.45;100.00;101669.44;5008964;28;20029;-70
2021/11/16 07:01:01;;;;;;;116.72;71.78;;;;;;;4.45;100.00;101664.97;5008939;28;20076;-71
2021/11/16 07:03:27;;;;;;;120.32;71.55;;;;;;;4.50;100.00;101667.44;5008967;28;20636;-71
2021/11/16 07:05:55;;;;;;;113.40;69.43;;;;;;;4.55;100.00;101674.28;4990887;28;20026;-71
2021/11/16 07:08:35;;;;;;;107.35;65.80;;;;;;;4.59;100.00;101670.56;5008915;28;20117;-71
2021/11/16 07:11:19;;;;;;;102.13;63.45;;;;;;;4.62;100.00;101666.94;5011403;28;20033;-68
2021/11/16 07:13:56;;;;;;;100.00;62.97;;;;;;;4.67;100.00;101675.56;5012667;28;20022;-68
2021/11/16 07:16:24;;;;;;;103.18;62.33;;;;;;;4.68;100.00;101677.31;5012354;28;20037;-68
2021/11/16 07:18:52;;;;;;;102.97;62.55;;;;;;;4.72;100.00;101673.59;5010841;28;20033;-68
2021/11/16 07:21:20;;;;;;;101.45;61.42;;;;;;;4.75;100.00;101671.66;5011316;28;20286;-69
2021/11/16 07:24:00;;;;;;;101.18;61.85;;;;;;;4.81;100.00;101672.34;5012480;28;20034;-67
2021/11/16 07:26:26;;;;;;;99.72;62.28;;;;;;;4.84;100.00;101678.41;5011507;28;20030;-68
2021/11/16 07:28:52;;;;;;;103.00;62.08;;;;;;;4.86;100.00;101665.88;5012002;28;20022;-68
2021/11/16 07:31:21;;;;;;;102.45;63.17;;;;;;;4.92;100.00;101673.59;5012409;28;20037;-68
2021/11/16 07:33:47;;;;;;;91.55;59.15;;;;;;;4.92;100.00;101672.72;5012061;28;20046;-67
2021/11/16 07:36:15;;;;;;;97.32;61.85;;;;;;;4.96;100.00;101669.03;5011852;28;20033;-67
2021/11/16 07:38:43;;;;;;;102.55;62.20;;;;;;;5.08;100.00;101682.66;5011869;28;20513;-66
2021/11/16 07:41:08;;;;;;;100.78;61.53;;;;;;;5.11;100.00;101687.84;5011557;28;20030;-67
2021/11/16 07:43:34;;;;;;;96.63;60.50;;;;;;;5.16;100.00;101685.81;5011943;28;20037;-67
2021/11/16 07:46:00;;;;;;;103.35;61.30;;;;;;;5.24;100.00;101689.03;5011811;28;20124;-67
2021/11/16 07:48:28;;;;;;;97.20;60.33;;;;;;;5.28;100.00;101687.94;5011813;28;20029;-68
2021/11/16 07:51:05;;;;;;;103.28;61.17;;;;;;;5.28;100.00;101674.66;5011713;28;20072;-68
2021/11/16 07:53:38;;;;;;;110.55;63.60;;;;;;;5.38;100.00;101686.59;5011983;28;20053;-68
2021/11/16 07:56:13;;;;;;;108.95;62.53;;;;;;;5.43;100.00;101683.75;5011981;28;20112;-67
2021/11/16 07:58:50;;;;;;;114.47;64.18;;;;;;;5.47;100.00;101683.53;5012278;28;20057;-68
2021/11/16 08:01:35;;;;;;;100.38;62.00;;;;;;;5.52;100.00;101684.19;5012083;28;20188;-67
2021/11/16 08:04:17;;;;;;;103.25;62.20;;;;;;;5.58;100.00;101678.56;5011994;28;20047;-68
2021/11/16 08:06:51;;;;;;;103.55;64.35;;;;;;;5.63;100.00;101684.56;5011947;28;20038;-68
2021/11/16 08:10:02;;;;;;;112.47;66.55;;;;;;;5.70;100.00;101672.69;5012163;28;20355;-67
2021/11/16 08:15:12;;;;;;;108.03;64.43;;;;;;;5.87;100.00;101675.47;5011861;28;20072;-68
2021/11/16 08:17:40;;;;;;;104.60;65.05;;;;;;;5.97;100.00;101679.41;5011774;28;20041;-68
2021/11/16 08:20:13;;;;;;;110.63;65.68;;;;;;;6.05;100.00;101679.06;5011645;28;20521;-68
2021/11/16 08:22:39;;;;;;;111.72;66.90;;;;;;;6.16;100.00;101684.75;5011499;28;20474;-68
2021/11/16 08:25:06;;;;;;;119.95;69.10;;;;;;;6.30;100.00;101674.28;5011501;28;20033;-68
2021/11/16 08:27:40;;;;;;;117.80;69.90;;;;;;;6.39;100.00;101669.34;5011640;28;20065;-68
2021/11/16 08:30:12;;;;;;;110.38;69.10;;;;;;;6.45;100.00;101662.88;5011594;28;20044;-68
2021/11/16 08:32:42;;;;;;;112.82;68.30;;;;;;;6.63;100.00;101677.94;5011456;28;20041;-68
2021/11/16 08:35:14;;;;;;;108.82;68.03;;;;;;;6.69;100.00;101658.97;4993368;28;20121;-67
2021/11/16 08:37:41;;;;;;;112.68;68.82;;;;;;;6.86;100.00;101674.97;5010147;28;20026;-68
2021/11/16 08:40:19;;;;;;;105.35;67.28;;;;;;;6.91;100.00;101671.13;5010220;28;20022;-68
2021/11/16 08:42:56;;;;;;;113.95;67.75;;;;;;;7.01;100.00;101660.88;5011303;28;20744;-68
2021/11/16 08:45:28;;;;;;;106.32;66.97;;;;;;;7.07;100.00;101666.72;5011399;28;20471;-68
2021/11/16 08:48:15;;;;;;;104.78;69.63;;;;;;;7.09;100.00;101663.16;5010943;28;20481;-68
2021/11/16 08:50:54;;;;;;;105.13;68.38;;;;;;;7.20;100.00;101661.63;5011243;28;20087;-67
2021/11/16 08:53:26;;;;;;;106.63;66.90;;;;;;;7.30;100.00;101672.69;5011308;28;20117;-68
2021/11/16 08:55:52;;;;;;;115.20;72.18;;;;;;;7.31;100.00;101664.59;5011331;28;20042;-68
2021/11/16 08:58:19;;;;;;;103.35;67.70;;;;;;;7.41;100.00;101679.16;5011136;28;20976;-67
2021/11/16 09:00:50;;;;;;;115.57;70.78;;;;;;;7.46;100.00;101685.13;5009641;28;20466;-68
2021/11/16 09:03:24;;;;;;;116.78;72.18;;;;;;;7.47;100.00;101677.97;5010852;28;20029;-67
2021/11/16 09:05:50;;;;;;;119.90;74.22;;;;;;;7.55;100.00;101676.66;4993557;28;20034;-69
2021/11/16 09:08:24;;;;;;;121.18;76.80;;;;;;;7.64;100.00;101672.63;5010730;28;20437;-68
2021/11/16 09:11:13;;;;;;;116.85;76.05;;;;;;;7.73;100.00;101677.44;5010991;28;20057;-71
2021/11/16 09:13:39;;;;;;;123.97;77.55;;;;;;;7.78;100.00;101676.25;5003774;28;20413;-71
2021/11/16 09:16:07;;;;;;;118.00;75.13;;;;;;;7.80;100.00;101671.69;5010774;28;20029;-71
2021/11/16 09:18:39;;;;;;;122.72;75.57;;;;;;;7.89;100.00;101676.50;4993661;28;20032;-71
2021/11/16 09:21:18;;;;;;;113.30;73.00;;;;;;;7.97;100.00;101676.09;5010665;28;20030;-71
2021/11/16 09:23:49;;;;;;;110.10;71.93;;;;;;;7.99;100.00;101672.38;5011151;28;20036;-71
2021/11/16 09:26:18;;;;;;;115.45;74.72;;;;;;;8.09;100.00;101678.09;5010723;28;20036;-71
2021/11/16 09:29:03;;;;;;;107.20;68.07;;;;;;;8.15;100.00;101672.38;5010703;28;20129;-71
2021/11/16 09:31:35;;;;;;;111.57;71.60;;;;;;;8.23;100.00;101680.88;5010519;28;20056;-70
2021/11/16 09:34:04;;;;;;;107.15;68.07;;;;;;;8.29;100.00;101673.34;5008792;28;20124;-70
2021/11/16 09:36:36;;;;;;;113.90;68.93;;;;;;;8.35;100.00;101674.84;5009454;28;20466;-72
2021/11/16 09:39:11;;;;;;;104.00;66.63;;;;;;;8.41;100.00;101667.31;5010590;28;20108;-71
2021/11/16 09:41:38;;;;;;;108.68;69.78;;;;;;;8.50;99.99;101664.13;5009366;28;20169;-72
2021/11/16 09:44:28;;;;;;;110.55;67.43;;;;;;;8.50;99.29;101636.50;5010265;28;20435;-71
2021/11/16 09:46:56;;;;;;;112.93;68.63;;;;;;;8.66;98.96;101640.00;5010622;28;20030;-71
2021/11/16 09:49:30;;;;;;;108.80;70.57;;;;;;;8.71;98.27;101648.66;5010600;28;20030;-71
2021/11/16 09:51:59;;;;;;;110.15;68.80;;;;;;;8.77;97.41;101649.13;5010411;28;20079;-70
2021/11/16 09:54:25;;;;;;;108.15;68.20;;;;;;;8.79;96.98;101638.34;5010143;28;20104;-71
2021/11/16 09:57:29;;;;;;;112.95;69.03;;;;;;;8.83;96.91;101629.16;5010735;28;20030;-71
2021/11/16 10:00:20;;;;;;;113.65;68.80;;;;;;;8.83;96.66;101626.50;4969335;28;20045;-71
2021/11/16 10:02:55;;;;;;;106.78;67.82;;;;;;;8.77;96.36;101619.69;5009036;28;20493;-71
2021/11/16 10:05:26;;;;;;;114.00;70.45;;;;;;;8.82;96.09;101616.75;5010494;28;20532;-72
2021/11/16 10:07:57;;;;;;;112.57;67.78;;;;;;;8.85;95.81;101612.09;5010327;28;20038;-71
2021/11/16 10:10:25;;;;;;;109.80;67.22;;;;;;;8.86;96.21;101605.78;4992846;28;20117;-70
2021/11/16 10:12:55;;;;;;;108.20;67.18;;;;;;;8.90;96.15;101599.28;5010182;28;20034;-71
2021/11/16 10:15:24;;;;;;;107.57;70.20;;;;;;;8.87;96.34;101599.47;5010223;28;20095;-70
2021/11/16 10:17:51;;;;;;;108.07;69.45;;;;;;;8.90;95.96;101596.59;5008868;28;20036;-71
2021/11/16 10:20:25;;;;;;;120.30;69.53;;;;;;;8.86;96.02;101599.56;5010128;28;20030;-71
2021/11/16 10:22:54;;;;;;;125.25;72.68;;;;;;;8.89;95.63;101610.94;5010402;28;20029;-71
2021/11/16 10:25:23;;;;;;;118.07;72.65;;;;;;;8.90;95.74;101604.63;5010319;28;20389;-71
2021/11/16 10:27:51;;;;;;;117.75;74.30;;;;;;;8.94;96.05;101608.00;5009862;28;20418;-71
2021/11/16 10:30:21;;;;;;;120.50;76.90;;;;;;;8.92;95.67;101596.50;5008780;28;20029;-71
2021/11/16 10:33:10;;;;;;;123.13;74.45;;;;;;;8.91;95.60;101605.50;5010227;28;20029;-71
2021/11/16 10:36:00;;;;;;;115.90;72.70;;;;;;;8.95;96.47;101604.34;5010139;28;20092;-71
2021/11/16 10:38:30;;;;;;;132.27;77.03;;;;;;;8.90;96.15;101599.28;4995918;28;20042;-71
2021/11/16 10:40:58;;;;;;;126.15;74.43;;;;;;;8.91;95.44;101594.81;5010071;28;20029;-71
2021/11/16 10:43:39;;;;;;;128.95;75.85;;;;;;;8.85;96.03;101585.34;5008835;28;20057;-71
2021/11/16 10:46:07;;;;;;;129.10;77.72;;;;;;;8.89;96.19;101594.91;5012561;28;20069;-71
2021/11/16 10:48:33;;;;;;;135.90;78.15;;;;;;;8.86;95.76;101591.53;5012238;28;20099;-71
2021/11/16 10:51:04;;;;;;;134.30;78.25;;;;;;;8.86;95.74;101586.19;5012312;28;20036;-71
2021/11/16 10:53:29;;;;;;;131.98;77.85;;;;;;;8.80;96.59;101582.06;5013787;28;20039;-71
2021/11/16 10:55:58;;;;;;;133.20;78.00;;;;;;;8.81;96.25;101578.44;5013823;28;20449;-71
2021/11/16 10:58:27;;;;;;;131.18;75.55;;;;;;;8.83;96.44;101583.69;5013632;28;20025;-71
2021/11/16 11:01:07;;;;;;;127.10;73.80;;;;;;;8.77;96.98;101568.88;5013865;28;20145;-71
2021/11/16 11:03:48;;;;;;;131.48;78.45;;;;;;;8.81;97.48;101567.72;5013580;28;20427;-71
2021/11/16 11:06:21;;;;;;;138.55;80.20;;;;;;;8.80;97.78;101575.84;5013544;28;20108;-71
2021/11/16 11:08:48;;;;;;;127.55;76.65;;;;;;;8.82;97.42;101569.47;5013424;28;20088;-72
2021/11/16 11:11:33;;;;;;;129.68;76.35;;;;;;;8.83;97.18;101562.28;5013572;28;20030;-71
2021/11/16 11:14:20;;;;;;;132.40;74.60;;;;;;;8.83;97.49;101560.47;5013335;28;20095;-71
2021/11/16 11:16:58;;;;;;;129.23;76.13;;;;;;;8.82;97.48;101556.09;5013218;28;20033;-71
2021/11/16 11:19:34;;;;;;;132.30;76.75;;;;;;;8.86;98.01;101559.44;5013388;28;20021;-71
2021/11/16 11:22:11;;;;;;;136.73;76.53;;;;;;;8.83;98.32;101555.13;5011517;28;20038;-72
2021/11/16 11:24:41;;;;;;;125.35;73.32;;;;;;;8.81;98.02;101545.50;5013117;28;20038;-72
2021/11/16 11:27:27;;;;;;;129.48;74.40;;;;;;;8.86;97.73;101559.44;5011633;28;20120;-72
2021/11/16 11:29:58;;;;;;;139.02;78.45;;;;;;;8.83;97.83;101564.97;5011684;28;20025;-71